createdAt,value
2018-10-17T00:01:33.772Z,45.10
2018-10-17T00:03:37.493Z,36.23
2018-10-17T00:05:40.702Z,42.43
2018-10-17T00:07:44.267Z,41.83
2018-10-17T00:09:47.662Z,42.83
2018-10-17T00:11:51.052Z,42.80
2018-10-17T00:13:54.272Z,42.30
2018-10-17T00:15:57.546Z,39.97
2018-10-17T00:18:00.772Z,37.97
2018-10-17T00:20:03.962Z,45.77
2018-10-17T00:22:07.824Z,37.97
2018-10-17T00:24:11.395Z,41.43
2018-10-17T00:26:14.693Z,41.23
2018-10-17T00:28:18.093Z,47.07
2018-10-17T00:30:21.301Z,47.07
2018-10-17T00:32:24.484Z,47.67
2018-10-17T00:34:27.701Z,45.80
2018-10-17T00:36:31.270Z,41.50
2018-10-17T00:38:34.488Z,45.40
2018-10-17T00:40:37.845Z,39.83
2018-10-17T00:42:41.127Z,44.27
2018-10-17T00:44:44.377Z,48.30
2018-10-17T00:46:47.572Z,44.10
2018-10-17T00:48:50.803Z,40.40
2018-10-17T00:50:54.500Z,39.70
2018-10-17T00:52:57.771Z,47.03
2018-10-17T00:55:01.217Z,41.33
2018-10-17T00:57:04.557Z,42.00
2018-10-17T00:59:11.621Z,39.90
2018-10-17T01:01:15.275Z,42.43
2018-10-17T01:03:18.692Z,45.30
2018-10-17T01:05:21.873Z,39.40
2018-10-17T01:07:25.064Z,41.57
2018-10-17T01:09:28.248Z,42.10
2018-10-17T01:11:31.576Z,42.03
2018-10-17T01:13:34.801Z,45.77
2018-10-17T01:15:38.339Z,40.37
2018-10-17T01:17:41.846Z,51.00
2018-10-17T01:19:45.026Z,55.53
2018-10-17T01:21:48.528Z,44.83
2018-10-17T01:23:52.105Z,43.13
2018-10-17T01:25:55.296Z,48.10
2018-10-17T01:27:58.497Z,39.93
2018-10-17T01:30:01.889Z,50.43
2018-10-17T01:32:05.129Z,52.57
2018-10-17T01:34:08.678Z,44.03
2018-10-17T01:36:18.640Z,46.43
2018-10-17T01:38:21.824Z,49.83
2018-10-17T01:40:25.517Z,51.10
2018-10-17T01:42:29.016Z,54.33
2018-10-17T01:44:32.204Z,48.57
2018-10-17T01:46:35.492Z,44.43
2018-10-17T01:48:38.669Z,46.73
2018-10-17T01:50:41.867Z,38.80
2018-10-17T01:52:45.102Z,41.43
2018-10-17T01:54:48.293Z,48.27
2018-10-17T01:56:51.725Z,44.60
2018-10-17T01:58:55.095Z,47.97
2018-10-17T02:00:59.197Z,47.03
2018-10-17T02:03:02.532Z,46.87
2018-10-17T02:05:05.757Z,47.30
2018-10-17T02:07:09.484Z,41.90
2018-10-17T02:09:12.824Z,38.73
2018-10-17T02:11:16.100Z,39.47
2018-10-17T02:13:20.945Z,45.47
2018-10-17T02:15:24.744Z,44.27
2018-10-17T02:17:28.155Z,38.60
2018-10-17T02:19:31.561Z,36.60
2018-10-17T02:21:34.758Z,43.60
2018-10-17T02:23:38.000Z,42.93
2018-10-17T02:25:41.188Z,38.73
2018-10-17T02:27:44.368Z,34.23
2018-10-17T02:29:47.614Z,40.93
2018-10-17T02:31:51.189Z,39.87
2018-10-17T02:33:54.379Z,41.50
2018-10-17T02:35:57.558Z,38.40
2018-10-17T02:38:00.773Z,37.50
2018-10-17T02:40:04.324Z,39.73
2018-10-17T02:42:07.521Z,47.90
2018-10-17T02:44:10.729Z,35.50
2018-10-17T02:46:13.925Z,38.30
2018-10-17T02:48:17.211Z,36.00
2018-10-17T02:50:21.200Z,39.47
2018-10-17T02:52:24.409Z,41.77
2018-10-17T02:54:27.590Z,39.33
2018-10-17T02:56:30.937Z,39.90
2018-10-17T02:58:34.133Z,47.17
2018-10-17T03:00:37.309Z,37.10
2018-10-17T03:02:41.224Z,39.20
2018-10-17T03:04:44.417Z,46.80
2018-10-17T03:06:47.768Z,41.53
2018-10-17T03:08:51.212Z,38.20
2018-10-17T03:10:54.777Z,42.67
2018-10-17T03:12:58.118Z,41.43
2018-10-17T03:15:01.358Z,41.40
2018-10-17T03:17:04.811Z,57.30
2018-10-17T03:19:08.503Z,36.73
2018-10-17T03:21:11.885Z,36.63
2018-10-17T03:23:15.167Z,41.40
2018-10-17T03:25:18.662Z,34.43
2018-10-17T03:27:21.896Z,39.53
2018-10-17T03:29:25.100Z,43.20
2018-10-17T03:31:28.383Z,61.47
2018-10-17T03:33:32.120Z,40.87
2018-10-17T03:35:35.349Z,39.60
2018-10-17T03:37:38.873Z,43.00
2018-10-17T03:39:42.069Z,40.60
2018-10-17T03:41:45.509Z,39.40
2018-10-17T03:43:48.688Z,37.20
2018-10-17T03:45:51.902Z,38.20
2018-10-17T03:47:55.172Z,40.00
2018-10-17T03:49:58.450Z,77.93
2018-10-17T03:52:01.731Z,40.90
2018-10-17T03:54:05.535Z,49.93
2018-10-17T03:56:08.905Z,39.87
2018-10-17T03:58:12.120Z,35.83
2018-10-17T04:00:15.940Z,41.40
2018-10-17T04:02:19.136Z,39.30
2018-10-17T04:04:22.393Z,53.57
2018-10-17T04:06:25.656Z,48.77
2018-10-17T04:08:28.873Z,42.60
2018-10-17T04:10:32.072Z,42.40
2018-10-17T04:12:35.497Z,42.20
2018-10-17T04:14:39.223Z,40.30
2018-10-17T04:16:42.547Z,40.33
2018-10-17T04:18:45.844Z,41.20
2018-10-17T04:20:49.146Z,41.30
2018-10-17T04:22:55.254Z,40.87
2018-10-17T04:24:59.053Z,37.37
2018-10-17T04:27:02.786Z,41.80
2018-10-17T04:29:06.822Z,47.70
2018-10-17T04:31:10.218Z,45.40
2018-10-17T04:33:13.537Z,48.97
2018-10-17T04:35:17.201Z,42.87
2018-10-17T04:37:20.564Z,38.47
2018-10-17T04:39:23.808Z,37.10
2018-10-17T04:41:27.008Z,36.77
2018-10-17T04:43:30.268Z,45.63
2018-10-17T04:45:33.708Z,40.53
2018-10-17T04:47:37.060Z,42.03
2018-10-17T04:49:40.696Z,40.37
2018-10-17T04:51:44.128Z,41.33
2018-10-17T04:53:47.704Z,43.90
2018-10-17T04:55:50.872Z,43.07
2018-10-17T04:57:54.120Z,40.37
2018-10-17T04:59:57.416Z,39.67
2018-10-17T05:02:00.605Z,40.70
2018-10-17T05:04:04.156Z,46.23
2018-10-17T05:06:07.364Z,46.13
2018-10-17T05:08:10.976Z,47.17
2018-10-17T05:10:14.876Z,55.70
2018-10-17T05:12:18.062Z,48.40
2018-10-17T05:14:21.492Z,47.23
2018-10-17T05:16:24.818Z,43.20
2018-10-17T05:18:28.078Z,50.90
2018-10-17T05:20:31.499Z,42.57
2018-10-17T05:22:34.725Z,46.67
2018-10-17T05:24:37.908Z,37.67
2018-10-17T05:26:41.108Z,54.40
2018-10-17T05:28:44.296Z,41.67
2018-10-17T05:30:47.899Z,46.50
2018-10-17T05:32:51.365Z,42.70
2018-10-17T05:34:54.572Z,43.70
2018-10-17T05:36:58.024Z,44.17
2018-10-17T05:39:01.465Z,43.40
2018-10-17T05:41:05.358Z,43.33
2018-10-17T05:43:08.790Z,46.40
2018-10-17T05:45:12.217Z,40.43
2018-10-17T05:47:15.685Z,47.87
2018-10-17T05:49:19.017Z,46.33
2018-10-17T05:51:22.544Z,49.23
2018-10-17T05:53:26.089Z,48.70
2018-10-17T05:55:29.335Z,43.37
2018-10-17T05:57:32.679Z,55.80
2018-10-17T05:59:36.180Z,51.03
2018-10-17T06:01:39.907Z,46.47
2018-10-17T06:03:43.174Z,41.70
2018-10-17T06:05:46.390Z,49.37
2018-10-17T06:07:49.748Z,50.23
2018-10-17T06:09:52.928Z,46.27
2018-10-17T06:11:56.435Z,53.80
2018-10-17T06:13:59.622Z,69.40
2018-10-17T06:16:03.244Z,69.03
2018-10-17T06:18:07.086Z,68.53
2018-10-17T06:20:11.167Z,68.93
2018-10-17T06:22:14.392Z,73.90
2018-10-17T06:24:18.325Z,56.93
2018-10-17T06:26:21.683Z,60.90
2018-10-17T06:28:24.862Z,58.83
2018-10-17T06:30:28.411Z,64.03
2018-10-17T06:32:31.797Z,46.57
2018-10-17T06:34:35.148Z,41.20
2018-10-17T06:36:38.659Z,44.03
2018-10-17T06:38:41.848Z,40.50
2018-10-17T06:40:45.108Z,47.30
2018-10-17T06:42:48.428Z,46.63
2018-10-17T06:44:51.639Z,37.27
2018-10-17T06:46:55.302Z,50.17
2018-10-17T06:48:59.153Z,37.17
2018-10-17T06:51:02.592Z,43.47
2018-10-17T06:53:06.001Z,40.80
2018-10-17T06:55:09.537Z,41.53
2018-10-17T06:57:12.907Z,39.33
2018-10-17T06:59:16.534Z,45.37
2018-10-17T07:01:19.873Z,42.27
2018-10-17T07:03:23.085Z,43.70
2018-10-17T07:05:26.472Z,44.23
2018-10-17T07:07:30.251Z,46.37
2018-10-17T07:09:33.412Z,41.97
2018-10-17T07:11:36.857Z,47.73
2018-10-17T07:13:40.504Z,42.87
2018-10-17T07:15:43.936Z,45.80
2018-10-17T07:17:47.204Z,39.60
2018-10-17T07:19:50.649Z,43.07
2018-10-17T07:21:54.211Z,41.30
2018-10-17T07:23:57.753Z,44.63
2018-10-17T07:26:01.016Z,43.10
2018-10-17T07:28:04.716Z,38.30
2018-10-17T07:30:08.756Z,38.43
2018-10-17T07:32:11.984Z,42.63
2018-10-17T07:34:15.549Z,33.33
2018-10-17T07:36:18.811Z,45.57
2018-10-17T07:38:22.532Z,39.47
2018-10-17T07:40:25.733Z,52.20
2018-10-17T07:42:28.940Z,54.27
2018-10-17T07:44:32.166Z,43.20
2018-10-17T07:46:35.688Z,45.47
2018-10-17T07:48:39.220Z,44.17
2018-10-17T07:50:42.760Z,47.80
2018-10-17T07:52:45.969Z,50.40
2018-10-17T07:54:49.177Z,39.33
2018-10-17T07:56:52.390Z,49.53
2018-10-17T07:58:55.813Z,45.30
2018-10-17T08:00:59.000Z,45.23
2018-10-17T08:03:02.200Z,47.60
2018-10-17T08:05:05.988Z,46.00
2018-10-17T08:07:09.790Z,40.90
2018-10-17T08:09:13.100Z,36.67
2018-10-17T08:11:17.059Z,40.53
2018-10-17T08:13:20.508Z,41.73
2018-10-17T08:15:23.718Z,41.53
2018-10-17T08:17:27.011Z,32.87
2018-10-17T08:19:30.390Z,36.77
2018-10-17T08:21:33.655Z,34.47
2018-10-17T08:23:37.336Z,37.17
2018-10-17T08:25:40.882Z,32.00
2018-10-17T08:27:44.272Z,33.87
2018-10-17T08:29:47.820Z,36.03
2018-10-17T08:31:51.091Z,31.10
2018-10-17T08:33:54.404Z,31.63
2018-10-17T08:35:58.330Z,28.13
2018-10-17T08:38:01.856Z,25.77
2018-10-17T08:40:06.055Z,31.83
2018-10-17T08:42:09.981Z,34.37
2018-10-17T08:44:13.344Z,32.73
2018-10-17T08:46:16.727Z,33.30
2018-10-17T08:48:20.121Z,28.43
2018-10-17T08:50:23.304Z,31.80
2018-10-17T08:52:26.847Z,32.47
2018-10-17T08:54:30.067Z,35.03
2018-10-17T08:56:33.494Z,35.27
2018-10-17T08:58:37.011Z,36.40
2018-10-17T09:00:40.256Z,29.07
2018-10-17T09:02:43.452Z,35.43
2018-10-17T09:04:46.666Z,31.07
2018-10-17T09:06:50.208Z,35.53
2018-10-17T09:08:53.444Z,38.77
2018-10-17T09:10:56.638Z,34.70
2018-10-17T09:12:59.833Z,33.53
2018-10-17T09:15:03.200Z,38.00
2018-10-17T09:17:07.158Z,34.67
2018-10-17T09:19:10.960Z,35.30
2018-10-17T09:21:15.147Z,39.53
2018-10-17T09:23:18.360Z,43.93
2018-10-17T09:25:21.707Z,44.67
2018-10-17T09:27:25.040Z,37.90
2018-10-17T09:29:30.299Z,45.97
2018-10-17T09:31:33.796Z,46.27
2018-10-17T09:33:37.136Z,36.13
2018-10-17T09:35:40.397Z,44.73
2018-10-17T09:37:43.739Z,41.87
2018-10-17T09:39:46.903Z,34.40
2018-10-17T09:41:50.469Z,38.90
2018-10-17T09:43:53.664Z,35.13
2018-10-17T09:45:56.900Z,39.23
2018-10-17T09:48:00.326Z,33.77
2018-10-17T09:50:04.169Z,33.97
2018-10-17T09:52:07.518Z,36.07
2018-10-17T09:54:11.255Z,28.87
2018-10-17T09:56:14.537Z,34.70
2018-10-17T09:58:17.827Z,37.87
2018-10-17T10:00:26.851Z,43.03
2018-10-17T10:02:30.210Z,47.90
2018-10-17T10:04:34.061Z,35.47
2018-10-17T10:06:37.656Z,38.00
2018-10-17T10:08:40.843Z,38.17
2018-10-17T10:10:44.071Z,39.30
2018-10-17T10:12:47.441Z,37.23
2018-10-17T10:14:50.840Z,35.73
2018-10-17T10:16:54.280Z,38.33
2018-10-17T10:18:57.898Z,35.07
2018-10-17T10:21:01.420Z,37.53
2018-10-17T10:23:05.095Z,33.27
2018-10-17T10:25:09.475Z,38.80
2018-10-17T10:27:12.828Z,33.30
2018-10-17T10:29:16.263Z,32.70
2018-10-17T10:31:19.776Z,35.03
2018-10-17T10:33:23.167Z,32.60
2018-10-17T10:35:26.476Z,33.80
2018-10-17T10:37:29.706Z,34.43
2018-10-17T10:39:33.028Z,28.53
2018-10-17T10:41:36.245Z,34.03
2018-10-17T10:43:39.784Z,28.50
2018-10-17T10:45:43.030Z,31.80
2018-10-17T10:47:46.421Z,32.20
2018-10-17T10:49:49.943Z,33.57
2018-10-17T10:51:53.143Z,29.53
2018-10-17T10:53:56.393Z,27.90
2018-10-17T10:55:59.793Z,23.03
2018-10-17T10:58:03.239Z,23.20
2018-10-17T11:00:06.953Z,23.83
2018-10-17T11:02:10.387Z,17.27
2018-10-17T11:04:13.749Z,23.73
2018-10-17T11:06:17.019Z,27.50
2018-10-17T11:08:20.188Z,18.93
2018-10-17T11:10:23.885Z,23.90
2018-10-17T11:12:27.152Z,21.33
2018-10-17T11:14:30.827Z,21.23
2018-10-17T11:16:34.142Z,23.00
2018-10-17T11:18:37.365Z,30.90
2018-10-17T11:20:40.686Z,20.60
2018-10-17T11:22:43.899Z,20.20
2018-10-17T11:24:47.292Z,17.33
2018-10-17T11:26:50.496Z,19.63
2018-10-17T11:28:53.818Z,15.40
2018-10-17T11:30:57.572Z,21.60
2018-10-17T11:33:00.833Z,15.80
2018-10-17T11:35:04.971Z,14.73
2018-10-17T11:37:08.614Z,17.80
2018-10-17T11:39:12.421Z,11.60
2018-10-17T11:41:16.200Z,18.40
2018-10-17T11:43:19.533Z,13.30
2018-10-17T11:45:22.761Z,14.17
2018-10-17T11:47:25.977Z,13.83
2018-10-17T11:49:29.491Z,18.50
2018-10-17T11:51:32.969Z,12.73
2018-10-17T11:53:36.175Z,12.27
2018-10-17T11:55:39.948Z,13.32
2018-10-17T11:57:43.741Z,8.03
2018-10-17T11:59:47.621Z,8.73
2018-10-17T12:01:51.685Z,9.78
2018-10-17T12:03:55.606Z,13.58
2018-10-17T12:05:59.460Z,8.28
2018-10-17T12:08:03.373Z,11.20
2018-10-17T12:10:07.682Z,8.68
2018-10-17T12:12:11.495Z,9.13
2018-10-17T12:14:15.413Z,9.10
2018-10-17T12:16:19.521Z,11.33
2018-10-17T12:18:23.277Z,8.03
2018-10-17T12:20:27.138Z,7.33
2018-10-17T12:22:31.264Z,7.95
2018-10-17T12:24:35.052Z,6.92
2018-10-17T12:26:39.008Z,8.20
2018-10-17T12:28:42.808Z,7.62
2018-10-17T12:30:47.089Z,7.33
2018-10-17T12:32:50.944Z,8.38
2018-10-17T12:34:54.358Z,7.97
2018-10-17T12:36:57.760Z,8.45
2018-10-17T12:39:01.120Z,13.72
2018-10-17T12:41:04.907Z,8.23
2018-10-17T12:43:08.349Z,13.32
2018-10-17T12:45:11.679Z,6.53
2018-10-17T12:47:15.065Z,11.33
2018-10-17T12:49:18.433Z,8.33
2018-10-17T12:51:22.436Z,7.15
2018-10-17T12:53:25.830Z,7.67
2018-10-17T12:55:29.220Z,8.38
2018-10-17T12:57:32.472Z,7.05
2018-10-17T12:59:35.699Z,15.40
2018-10-17T13:01:38.971Z,12.28
2018-10-17T13:03:42.401Z,8.43
2018-10-17T13:05:45.584Z,9.28
2018-10-17T13:07:48.909Z,8.85
2018-10-17T13:09:52.103Z,7.33
2018-10-17T13:11:55.320Z,9.08
2018-10-17T13:13:58.632Z,15.63
2018-10-17T13:16:02.848Z,9.43
2018-10-17T13:18:07.012Z,9.60
2018-10-17T13:20:10.952Z,7.42
2018-10-17T13:22:14.432Z,7.27
2018-10-17T13:24:17.695Z,7.87
2018-10-17T13:26:20.918Z,10.13
2018-10-17T13:28:25.368Z,8.03
2018-10-17T13:30:29.143Z,8.90
2018-10-17T13:32:33.113Z,11.65
2018-10-17T13:34:37.336Z,8.98
2018-10-17T13:36:41.074Z,8.40
2018-10-17T13:38:45.376Z,8.20
2018-10-17T13:40:48.629Z,8.73
2018-10-17T13:42:51.838Z,9.20
2018-10-17T13:44:55.244Z,11.37
2018-10-17T13:46:58.518Z,9.67
2018-10-17T13:49:01.977Z,20.03
2018-10-17T13:51:05.489Z,11.30
2018-10-17T13:53:09.355Z,14.07
2018-10-17T13:55:13.094Z,13.83
2018-10-17T13:57:16.490Z,8.40
2018-10-17T13:59:19.821Z,9.57
2018-10-17T14:01:23.690Z,10.00
2018-10-17T15:25:29.474Z,16.43
2018-10-17T15:27:32.921Z,13.10
2018-10-17T15:29:36.119Z,14.00
2018-10-17T15:31:39.396Z,14.40
2018-10-17T15:33:42.793Z,10.13
2018-10-17T15:35:46.016Z,14.20
2018-10-17T15:37:49.669Z,11.33
2018-10-17T15:39:52.886Z,14.43
2018-10-17T15:41:56.105Z,11.60
2018-10-17T15:43:59.844Z,13.30
2018-10-17T15:46:03.112Z,14.73
2018-10-17T15:48:06.536Z,11.80
2018-10-17T15:50:10.232Z,15.43
2018-10-17T15:52:13.797Z,15.57
2018-10-17T15:54:17.169Z,19.03
2018-10-17T15:56:20.278Z,13.00
2018-10-17T15:58:23.472Z,11.67
2018-10-17T16:00:26.992Z,9.60
2018-10-17T16:02:30.490Z,11.47
2018-10-17T16:04:33.844Z,14.20
2018-10-17T16:06:37.032Z,11.97
2018-10-17T16:08:40.296Z,17.23
2018-10-17T16:10:43.564Z,14.90
2018-10-17T16:12:46.799Z,12.00
2018-10-17T16:14:50.226Z,15.17
2018-10-17T16:16:53.734Z,11.87
2018-10-17T16:18:57.132Z,10.90
2018-10-17T16:21:00.597Z,12.80
2018-10-17T16:23:04.474Z,14.40
2018-10-17T16:25:08.236Z,18.43
2018-10-17T16:27:11.440Z,13.43
2018-10-17T16:29:14.637Z,13.77
2018-10-17T16:31:17.913Z,14.23
2018-10-17T16:33:21.280Z,16.00
2018-10-17T16:35:24.822Z,15.20
2018-10-17T16:37:28.246Z,19.03
2018-10-17T16:39:31.460Z,15.77
2018-10-17T16:41:34.727Z,18.37
2018-10-17T16:43:38.028Z,14.17
2018-10-17T16:45:41.820Z,13.57
2018-10-17T16:47:45.289Z,15.93
2018-10-17T16:49:48.680Z,12.00
2018-10-17T16:51:52.316Z,10.73
2018-10-17T16:53:55.560Z,21.77
2018-10-17T16:55:58.972Z,12.30
2018-10-17T16:58:02.542Z,14.73
2018-10-17T17:00:07.664Z,18.10
2018-10-17T17:02:11.324Z,12.97
2018-10-17T17:04:14.574Z,15.30
2018-10-17T17:06:18.355Z,21.30
2018-10-17T17:08:22.020Z,14.20
2018-10-17T17:10:25.275Z,13.17
2018-10-17T17:12:28.930Z,17.80
2018-10-17T17:14:32.518Z,16.43
2018-10-17T17:16:36.540Z,17.27
2018-10-17T17:18:39.702Z,26.47
2018-10-17T17:20:43.688Z,19.50
2018-10-17T17:22:47.339Z,19.70
2018-10-17T17:24:50.735Z,20.97
2018-10-17T17:26:54.397Z,17.83
2018-10-17T17:28:57.853Z,20.63
2018-10-17T17:31:01.145Z,19.23
2018-10-17T17:33:04.346Z,24.93
2018-10-17T17:35:07.837Z,23.80
2018-10-17T17:37:11.020Z,26.33
2018-10-17T17:39:14.208Z,25.80
2018-10-17T17:41:18.023Z,33.53
2018-10-17T17:43:21.291Z,41.77
2018-10-17T17:45:24.464Z,38.97
2018-10-17T17:47:27.655Z,44.60
2018-10-17T17:49:30.900Z,39.30
2018-10-17T17:51:34.092Z,45.33
2018-10-17T17:53:37.540Z,63.90
2018-10-17T17:55:41.137Z,42.27
2018-10-17T17:57:44.413Z,55.70
2018-10-17T17:59:47.824Z,59.67
2018-10-17T18:01:51.072Z,63.27
2018-10-17T18:03:54.301Z,62.33
2018-10-17T18:05:57.740Z,60.17
2018-10-17T18:08:00.925Z,61.63
2018-10-17T18:10:04.612Z,68.83
2018-10-17T18:12:07.992Z,70.53
2018-10-17T18:14:11.790Z,61.30
2018-10-17T18:16:15.232Z,53.67
2018-10-17T18:18:18.781Z,63.63
2018-10-17T18:20:22.519Z,57.93
2018-10-17T18:22:25.870Z,60.83
2018-10-17T18:24:29.200Z,60.87
2018-10-17T18:26:32.741Z,57.83
2018-10-17T18:28:36.315Z,65.77
2018-10-17T18:30:39.736Z,63.03
2018-10-17T18:32:42.905Z,60.97
2018-10-17T18:34:46.136Z,61.20
2018-10-17T18:36:49.324Z,58.27
2018-10-17T18:38:52.504Z,63.90
2018-10-17T18:40:56.040Z,63.20
2018-10-17T18:42:59.417Z,61.70
2018-10-17T18:45:03.132Z,65.93
2018-10-17T18:47:06.421Z,75.70
2018-10-17T18:49:09.752Z,73.30
2018-10-17T18:51:13.226Z,68.27
2018-10-17T18:53:16.470Z,64.63
2018-10-17T18:55:19.738Z,69.17
2018-10-17T18:57:23.078Z,55.60
2018-10-17T18:59:26.300Z,65.17
2018-10-17T19:01:29.531Z,66.40
2018-10-17T19:03:33.252Z,71.57
2018-10-17T19:05:36.675Z,69.57
2018-10-17T19:07:40.256Z,76.03
2018-10-17T19:09:43.436Z,62.37
2018-10-17T19:11:47.147Z,71.53
2018-10-17T19:13:50.324Z,92.50
2018-10-17T19:15:53.916Z,87.50
2018-10-17T19:17:57.528Z,78.13
2018-10-17T19:20:00.704Z,80.93
2018-10-17T19:22:04.230Z,79.87
2018-10-17T19:24:07.547Z,83.80
2018-10-17T19:26:10.925Z,87.73
2018-10-17T19:28:14.100Z,77.57
2018-10-17T19:30:17.592Z,71.43
2018-10-17T19:32:20.952Z,82.60
2018-10-17T19:34:24.128Z,86.00
2018-10-17T19:36:27.363Z,88.50
2018-10-17T19:38:30.605Z,97.00
2018-10-17T19:40:33.840Z,91.73
2018-10-17T19:42:37.468Z,84.47
2018-10-17T19:44:40.669Z,97.10
2018-10-17T19:46:44.184Z,97.30
2018-10-17T19:48:47.533Z,95.57
2018-10-17T19:50:57.354Z,103.40
2018-10-17T19:53:00.688Z,84.37
2018-10-17T19:55:03.937Z,100.53
2018-10-17T19:57:07.361Z,108.73
2018-10-17T19:59:11.171Z,107.63
2018-10-17T20:01:14.795Z,109.93
2018-10-17T20:03:18.307Z,94.90
2018-10-17T20:05:21.946Z,100.50
2018-10-17T20:07:25.136Z,105.93
2018-10-17T20:09:28.361Z,86.20
2018-10-17T20:11:31.544Z,97.27
2018-10-17T20:13:34.877Z,106.00
2018-10-17T20:15:38.497Z,94.23
2018-10-17T20:17:41.676Z,87.17
2018-10-17T20:19:44.929Z,98.43
2018-10-17T20:21:48.365Z,105.30
2018-10-17T20:23:51.897Z,103.37
2018-10-17T20:25:55.412Z,105.37
2018-10-17T20:27:58.931Z,99.57
2018-10-17T20:30:02.428Z,108.70
2018-10-17T20:32:06.398Z,104.17
2018-10-17T20:34:10.169Z,115.20
2018-10-17T20:36:13.351Z,86.70
2018-10-17T20:38:16.809Z,100.90
2018-10-17T20:40:20.106Z,106.53
2018-10-17T20:42:23.458Z,116.10
2018-10-17T20:44:26.756Z,114.87
2018-10-17T20:46:29.922Z,96.10
2018-10-17T20:48:33.301Z,108.67
2018-10-17T20:50:36.705Z,119.10
2018-10-17T20:52:39.920Z,92.87
2018-10-17T20:54:43.108Z,101.67
2018-10-17T20:56:46.732Z,101.73
2018-10-17T20:58:50.254Z,112.20
2018-10-17T21:00:53.709Z,96.07
2018-10-17T21:02:57.240Z,113.80
2018-10-17T21:05:00.444Z,121.33
2018-10-17T21:07:03.881Z,110.57
2018-10-17T21:09:12.160Z,109.47
2018-10-17T21:11:15.846Z,108.50
2018-10-17T21:13:19.156Z,111.70
2018-10-17T21:15:22.349Z,129.10
2018-10-17T21:17:26.248Z,109.67
2018-10-17T21:19:29.820Z,108.77
2018-10-17T21:21:33.027Z,116.70
2018-10-17T21:23:36.384Z,108.43
2018-10-17T21:25:39.572Z,112.40
2018-10-17T21:27:42.848Z,120.30
2018-10-17T21:29:46.079Z,117.53
2018-10-17T21:31:49.326Z,118.20
2018-10-17T21:33:52.496Z,106.00
2018-10-17T21:35:55.709Z,128.63
2018-10-17T21:37:58.923Z,109.43
2018-10-17T21:40:02.777Z,113.73
2018-10-17T21:42:06.518Z,124.87
2018-10-17T21:44:10.930Z,120.13
2018-10-17T21:46:14.226Z,136.80
2018-10-17T21:48:17.424Z,103.50
2018-10-17T21:50:20.695Z,119.73
2018-10-17T21:52:23.862Z,122.23
2018-10-17T21:54:27.278Z,135.23
2018-10-17T21:56:30.537Z,140.73
2018-10-17T21:58:33.732Z,119.40
2018-10-17T22:00:36.967Z,108.90
2018-10-17T22:02:40.381Z,120.80
2018-10-17T22:04:43.708Z,119.50
2018-10-17T22:06:46.955Z,115.70
2018-10-17T22:08:50.121Z,83.43
2018-10-17T22:10:53.305Z,127.97
2018-10-17T22:12:56.705Z,113.07
2018-10-17T22:14:59.900Z,106.73
2018-10-17T22:17:06.187Z,125.77
2018-10-17T22:19:09.793Z,114.20
2018-10-17T22:21:13.004Z,121.50
2018-10-17T22:23:16.199Z,112.67
2018-10-17T22:25:19.584Z,80.37
2018-10-17T22:27:23.040Z,106.73
2018-10-17T22:29:26.748Z,98.83
2018-10-17T22:31:29.932Z,113.17
2018-10-17T22:33:33.244Z,120.20
2018-10-17T22:35:36.415Z,111.60
2018-10-17T22:37:39.748Z,117.87
2018-10-17T22:39:42.937Z,122.93
2018-10-17T22:41:46.384Z,117.90
2018-10-17T22:43:49.566Z,81.97
2018-10-17T22:45:52.760Z,111.43
2018-10-17T22:47:55.935Z,124.50
2018-10-17T22:49:59.264Z,115.23
2018-10-17T22:52:02.986Z,112.00
2018-10-17T22:54:06.606Z,121.43
2018-10-17T22:56:09.891Z,132.37
2018-10-17T22:58:13.475Z,124.33
2018-10-17T23:00:17.039Z,113.73
2018-10-17T23:02:20.221Z,104.97
2018-10-17T23:04:23.929Z,112.67
2018-10-17T23:06:27.111Z,99.80
2018-10-17T23:08:30.501Z,123.50
2018-10-17T23:10:34.037Z,92.70
2018-10-17T23:12:37.236Z,105.60
2018-10-17T23:14:40.426Z,100.77
2018-10-17T23:16:43.614Z,107.57
2018-10-17T23:18:47.367Z,104.10
2018-10-17T23:20:50.644Z,93.07
2018-10-17T23:22:54.196Z,110.33
2018-10-17T23:24:57.477Z,98.60
2018-10-17T23:27:00.677Z,102.63
2018-10-17T23:29:04.225Z,95.03
2018-10-17T23:31:07.416Z,93.60
2018-10-17T23:33:10.967Z,105.90
2018-10-17T23:35:14.329Z,78.77
2018-10-17T23:37:17.523Z,96.20
2018-10-17T23:39:21.031Z,89.13
2018-10-17T23:41:24.248Z,78.37
2018-10-17T23:43:27.600Z,89.57
2018-10-17T23:45:31.129Z,93.33
2018-10-17T23:47:34.453Z,99.70
2018-10-17T23:49:37.640Z,86.60
2018-10-17T23:51:40.829Z,84.63
2018-10-17T23:53:44.347Z,93.10
2018-10-17T23:55:47.525Z,79.13
2018-10-17T23:57:50.773Z,87.83
2018-10-17T23:59:54.005Z,95.90
